createdAt,value
2016-08-17T00:03:20.848Z,"  -71"
2016-08-17T00:08:18.365Z,"  -72"
2016-08-17T00:13:16.129Z,"  -72"
2016-08-17T00:18:13.851Z,"  -73"
2016-08-17T00:23:11.524Z,"  -75"
2016-08-17T00:28:09.010Z,"  -77"
2016-08-17T00:33:06.704Z,"  -79"
2016-08-17T00:38:04.377Z,"  -82"
2016-08-17T00:43:02.008Z,"  -80"
2016-08-17T00:47:59.747Z,"  -72"
2016-08-17T00:52:57.659Z,"  -70"
2016-08-17T00:57:55.283Z,"  -73"
2016-08-17T01:02:53.104Z,"  -70"
2016-08-17T01:07:51.049Z,"  -77"
2016-08-17T01:12:48.663Z,"  -74"
2016-08-17T01:17:46.248Z,"  -73"
2016-08-17T01:22:43.910Z,"  -72"
2016-08-17T01:27:41.759Z,"  -74"
2016-08-17T01:32:39.316Z,"  -78"
2016-08-17T01:37:37.003Z,"  -74"
2016-08-17T01:42:34.822Z,"  -82"
2016-08-17T01:47:32.350Z,"  -82"
2016-08-17T01:52:29.966Z,"  -82"
2016-08-17T01:57:27.643Z,"  -81"
2016-08-17T02:02:25.357Z,"  -77"
2016-08-17T02:07:23.096Z,"  -81"
2016-08-17T02:12:20.943Z,"  -82"
2016-08-17T02:17:18.569Z,"  -77"
2016-08-17T02:22:16.341Z,"  -82"
2016-08-17T02:27:14.625Z,"  -80"
2016-08-17T02:32:12.090Z,"  -74"
2016-08-17T02:37:10.754Z,"  -81"
2016-08-17T02:42:08.247Z,"  -82"
2016-08-17T02:47:06.048Z,"  -81"
2016-08-17T02:52:03.789Z,"  -81"
2016-08-17T02:57:01.788Z,"  -80"
2016-08-17T03:01:59.487Z,"  -79"
2016-08-17T03:06:57.176Z,"  -79"
2016-08-17T03:11:54.951Z,"  -77"
2016-08-17T03:16:52.670Z,"  -78"
2016-08-17T03:21:50.345Z,"  -79"
2016-08-17T03:26:48.074Z,"  -80"
2016-08-17T03:31:45.801Z,"  -80"
2016-08-17T03:36:43.652Z,"  -79"
2016-08-17T03:41:41.249Z,"  -76"
2016-08-17T03:46:38.912Z,"  -77"
2016-08-17T03:51:36.694Z,"  -79"
2016-08-17T03:56:34.452Z,"  -78"
2016-08-17T04:01:32.148Z,"  -70"
2016-08-17T04:06:29.742Z,"  -80"
2016-08-17T04:11:27.453Z,"  -80"
2016-08-17T04:16:25.108Z,"  -79"
2016-08-17T04:21:22.896Z,"  -79"
2016-08-17T04:26:20.527Z,"  -71"
2016-08-17T04:31:18.429Z,"  -70"
2016-08-17T04:36:16.125Z,"  -70"
2016-08-17T04:41:13.809Z,"  -71"
2016-08-17T04:46:11.427Z,"  -69"
2016-08-17T04:51:09.084Z,"  -70"
2016-08-17T04:56:06.910Z,"  -71"
2016-08-17T05:01:04.452Z,"  -69"
2016-08-17T05:06:02.138Z,"  -72"
2016-08-17T05:10:59.822Z,"  -70"
2016-08-17T05:15:57.654Z,"  -70"
2016-08-17T05:20:55.353Z,"  -72"
2016-08-17T05:25:53.376Z,"  -71"
2016-08-17T05:30:51.270Z,"  -70"
2016-08-17T05:35:49.247Z,"  -70"
2016-08-17T05:40:46.962Z,"  -69"
2016-08-17T05:45:44.649Z,"  -75"
2016-08-17T05:50:42.252Z,"  -75"
2016-08-17T05:55:40.089Z,"  -70"
2016-08-17T06:00:38.053Z,"  -70"
2016-08-17T06:05:35.851Z,"  -69"
2016-08-17T06:10:33.766Z,"  -70"
2016-08-17T06:15:31.513Z,"  -68"
2016-08-17T06:20:29.426Z,"  -68"
2016-08-17T06:25:27.232Z,"  -68"
2016-08-17T06:30:24.978Z,"  -67"
2016-08-17T06:35:22.645Z,"  -69"
2016-08-17T06:40:20.174Z,"  -73"
2016-08-17T06:45:17.593Z,"  -71"
2016-08-17T06:50:15.193Z,"  -68"
2016-08-17T06:55:12.841Z,"  -71"
2016-08-17T07:00:10.414Z,"  -69"
2016-08-17T07:05:07.849Z,"  -70"
2016-08-17T07:10:05.608Z,"  -77"
2016-08-17T07:15:03.364Z,"  -75"
2016-08-17T07:20:01.100Z,"  -76"
2016-08-17T07:24:58.867Z,"  -72"
2016-08-17T07:29:56.806Z,"  -77"
2016-08-17T07:34:54.557Z,"  -78"
2016-08-17T07:39:52.203Z,"  -77"
2016-08-17T07:44:50.133Z,"  -73"
2016-08-17T07:49:47.732Z,"  -76"
2016-08-17T07:54:45.385Z,"  -78"
2016-08-17T07:59:43.128Z,"  -76"
2016-08-17T08:04:40.929Z,"  -69"
2016-08-17T08:09:38.940Z,"  -78"
2016-08-17T08:14:37.426Z,"  -77"
2016-08-17T08:19:35.763Z,"  -77"
2016-08-17T08:24:34.111Z,"  -77"
2016-08-17T08:29:32.145Z,"  -76"
2016-08-17T08:34:30.514Z,"  -69"
2016-08-17T08:39:28.446Z,"  -76"
2016-08-17T08:44:26.330Z,"  -75"
2016-08-17T08:49:24.054Z,"  -78"
2016-08-17T08:54:21.757Z,"  -79"
2016-08-17T08:59:19.647Z,"  -77"
2016-08-17T09:04:17.378Z,"  -77"
2016-08-17T09:09:14.813Z,"  -71"
2016-08-17T09:14:12.694Z,"  -71"
2016-08-17T09:19:10.003Z,"  -79"
2016-08-17T09:24:07.673Z,"  -71"
2016-08-17T09:29:05.433Z,"  -72"
2016-08-17T09:34:02.785Z,"  -69"
2016-08-17T09:39:00.401Z,"  -72"
2016-08-17T09:43:58.102Z,"  -76"
2016-08-17T09:48:55.600Z,"  -75"
2016-08-17T09:53:52.998Z,"  -78"
2016-08-17T09:58:50.652Z,"  -76"
2016-08-17T10:03:48.462Z,"  -74"
2016-08-17T10:08:46.114Z,"  -76"
2016-08-17T10:13:43.618Z,"  -78"
2016-08-17T10:18:41.292Z,"  -75"
2016-08-17T10:23:38.977Z,"  -78"
2016-08-17T10:28:36.678Z,"  -79"
2016-08-17T10:33:34.300Z,"  -78"
2016-08-17T10:38:31.941Z,"  -79"
2016-08-17T10:43:29.548Z,"  -77"
2016-08-17T10:48:27.263Z,"  -79"
2016-08-17T10:53:25.077Z,"  -74"
2016-08-17T10:58:22.740Z,"  -77"
2016-08-17T11:03:20.770Z,"  -79"
2016-08-17T11:08:18.382Z,"  -77"
2016-08-17T11:13:16.246Z,"  -76"
2016-08-17T11:18:13.787Z,"  -78"
2016-08-17T11:23:11.292Z,"  -78"
2016-08-17T11:28:09.093Z,"  -75"
2016-08-17T11:33:07.010Z,"  -78"
2016-08-17T11:38:04.692Z,"  -77"
2016-08-17T11:43:02.444Z,"  -78"
2016-08-17T11:48:00.124Z,"  -79"
2016-08-17T11:52:57.777Z,"  -79"
2016-08-17T11:57:55.776Z,"  -75"
2016-08-17T12:02:53.470Z,"  -78"
2016-08-17T12:07:51.211Z,"  -80"
2016-08-17T12:12:48.898Z,"  -79"
2016-08-17T12:17:46.787Z,"  -77"
2016-08-17T12:22:44.500Z,"  -79"
2016-08-17T12:27:42.179Z,"  -80"
2016-08-17T12:32:39.693Z,"  -79"
2016-08-17T12:37:37.450Z,"  -79"
2016-08-17T12:42:35.071Z,"  -71"
2016-08-17T12:47:32.582Z,"  -79"
2016-08-17T12:52:30.260Z,"  -75"
2016-08-17T12:57:27.936Z,"  -79"
2016-08-17T13:02:25.661Z,"  -78"
2016-08-17T13:07:23.511Z,"  -79"
2016-08-17T13:12:21.351Z,"  -78"
2016-08-17T13:17:19.306Z,"  -78"
2016-08-17T13:22:16.988Z,"  -79"
2016-08-17T13:27:14.725Z,"  -71"
2016-08-17T13:32:12.515Z,"  -77"
2016-08-17T13:37:10.138Z,"  -79"
2016-08-17T13:42:08.071Z,"  -78"
2016-08-17T13:47:05.668Z,"  -79"
2016-08-17T13:52:03.369Z,"  -78"
2016-08-17T13:57:01.030Z,"  -77"
2016-08-17T14:01:58.896Z,"  -77"
2016-08-17T14:06:56.459Z,"  -77"
2016-08-17T14:11:54.164Z,"  -79"
2016-08-17T14:16:51.734Z,"  -78"
2016-08-17T14:21:49.594Z,"  -79"
2016-08-17T14:26:47.207Z,"  -78"
2016-08-17T14:31:45.130Z,"  -79"
2016-08-17T14:36:42.769Z,"  -76"
2016-08-17T14:41:40.542Z,"  -75"
2016-08-17T14:46:38.150Z,"  -79"
2016-08-17T14:51:35.882Z,"  -78"
2016-08-17T14:56:33.437Z,"  -79"
2016-08-17T15:01:31.300Z,"  -79"
2016-08-17T15:06:29.029Z,"  -79"
2016-08-17T15:11:26.739Z,"  -78"
2016-08-17T15:16:24.648Z,"  -78"
2016-08-17T15:21:22.284Z,"  -77"
2016-08-17T15:26:20.251Z,"  -76"
2016-08-17T15:31:17.721Z,"  -73"
2016-08-17T15:36:15.708Z,"  -72"
2016-08-17T15:41:13.371Z,"  -75"
2016-08-17T15:46:11.235Z,"  -69"
2016-08-17T15:51:08.889Z,"  -74"
2016-08-17T15:56:06.536Z,"  -77"
2016-08-17T16:01:04.568Z,"  -74"
2016-08-17T16:06:02.172Z,"  -73"
2016-08-17T16:10:59.874Z,"  -79"
2016-08-17T16:15:57.450Z,"  -72"
2016-08-17T16:20:55.075Z,"  -71"
2016-08-17T16:25:52.687Z,"  -74"
2016-08-17T16:30:50.413Z,"  -69"
2016-08-17T16:35:48.327Z,"  -70"
2016-08-17T16:40:45.868Z,"  -72"
2016-08-17T16:45:43.582Z,"  -70"
2016-08-17T16:50:41.498Z,"  -71"
2016-08-17T16:55:39.162Z,"  -71"
2016-08-17T17:00:36.884Z,"  -67"
2016-08-17T17:05:34.576Z,"  -72"
2016-08-17T17:10:32.210Z,"  -69"
2016-08-17T17:15:29.918Z,"  -71"
2016-08-17T17:20:27.636Z,"  -72"
2016-08-17T17:25:25.268Z,"  -69"
2016-08-17T17:30:23.031Z,"  -71"
2016-08-17T17:35:20.639Z,"  -69"
2016-08-17T17:40:18.485Z,"  -70"
2016-08-17T17:45:16.077Z,"  -69"
2016-08-17T17:50:14.008Z,"  -70"
2016-08-17T17:55:11.588Z,"  -75"
2016-08-17T18:00:09.221Z,"  -69"
2016-08-17T18:05:06.907Z,"  -69"
2016-08-17T18:10:04.793Z,"  -68"
2016-08-17T18:15:02.330Z,"  -69"
2016-08-17T18:20:00.091Z,"  -72"
2016-08-17T18:24:57.807Z,"  -70"
2016-08-17T18:29:55.564Z,"  -69"
2016-08-17T18:34:53.272Z,"  -69"
2016-08-17T18:39:51.122Z,"  -75"
2016-08-17T18:44:48.692Z,"  -72"
2016-08-17T18:49:46.353Z,"  -75"
2016-08-17T18:54:44.000Z,"  -75"
2016-08-17T18:59:41.803Z,"  -78"
2016-08-17T19:04:39.485Z,"  -68"
2016-08-17T19:09:37.262Z,"  -68"
2016-08-17T19:14:35.157Z,"  -68"
2016-08-17T19:19:32.922Z,"  -68"
2016-08-17T19:24:30.589Z,"  -69"
2016-08-17T19:29:28.704Z,"  -67"
2016-08-17T19:34:26.284Z,"  -70"
2016-08-17T19:39:24.016Z,"  -67"
2016-08-17T19:44:21.757Z,"  -69"
2016-08-17T19:49:19.328Z,"  -71"
2016-08-17T19:54:17.148Z,"  -70"
2016-08-17T19:59:14.746Z,"  -67"
2016-08-17T20:04:12.554Z,"  -72"
2016-08-17T20:09:11.293Z,"  -69"
2016-08-17T20:14:08.749Z,"  -68"
2016-08-17T20:19:06.547Z,"  -69"
2016-08-17T20:24:04.109Z,"  -69"
2016-08-17T20:29:01.888Z,"  -69"
2016-08-17T20:33:59.853Z,"  -68"
2016-08-17T20:38:57.386Z,"  -69"
2016-08-17T20:43:55.161Z,"  -69"
2016-08-17T20:48:52.707Z,"  -68"
2016-08-17T20:53:50.455Z,"  -79"
2016-08-17T20:58:48.192Z,"  -75"
2016-08-17T21:03:45.885Z,"  -71"
2016-08-17T21:08:43.814Z,"  -77"
2016-08-17T21:13:41.493Z,"  -81"
2016-08-17T21:18:39.048Z,"  -78"
2016-08-17T21:23:36.991Z,"  -71"
2016-08-17T21:28:34.620Z,"  -73"
2016-08-17T21:33:32.224Z,"  -74"
2016-08-17T21:38:30.057Z,"  -74"
2016-08-17T21:43:27.643Z,"  -75"
2016-08-17T21:48:25.593Z,"  -76"
2016-08-17T21:53:23.196Z,"  -76"
2016-08-17T21:58:20.808Z,"  -76"
2016-08-17T22:03:18.509Z,"  -76"
2016-08-17T22:08:16.092Z,"  -76"
2016-08-17T22:13:13.917Z,"  -76"
2016-08-17T22:18:11.655Z,"  -76"
2016-08-17T22:23:09.361Z,"  -76"
2016-08-17T22:28:07.207Z,"  -74"
2016-08-17T22:33:04.802Z,"  -74"
2016-08-17T22:38:02.507Z,"  -77"
2016-08-17T22:43:00.140Z,"  -76"
2016-08-17T22:47:57.934Z,"  -70"
2016-08-17T22:52:55.549Z,"  -70"
2016-08-17T22:57:53.175Z,"  -76"
2016-08-17T23:02:50.981Z,"  -68"
2016-08-17T23:07:49.435Z,"  -73"
2016-08-17T23:12:46.847Z,"  -73"
2016-08-17T23:17:44.526Z,"  -69"
2016-08-17T23:22:42.301Z,"  -71"
2016-08-17T23:27:40.160Z,"  -74"
2016-08-17T23:32:37.980Z,"  -70"
2016-08-17T23:37:35.658Z,"  -76"
2016-08-17T23:42:33.547Z,"  -71"
2016-08-17T23:47:31.209Z,"  -70"
2016-08-17T23:52:29.132Z,"  -68"
2016-08-17T23:57:26.836Z,"  -68"
